sensor_id;sensor_type;location;lat;lon;timestamp;P1;durP1;ratioP1;P2;durP2;ratioP2
66429;SDS011;53242;51.694;10.006;2022-10-16T00:00:25;3.95;;;1.90;;
66429;SDS011;53242;51.694;10.006;2022-10-16T00:02:48;4.13;;;1.80;;
66429;SDS011;53242;51.694;10.006;2022-10-16T00:05:10;3.22;;;1.95;;
66429;SDS011;53242;51.694;10.006;2022-10-16T00:07:33;2.80;;;1.55;;
66429;SDS011;53242;51.694;10.006;2022-10-16T00:09:55;4.32;;;2.08;;
66429;SDS011;53242;51.694;10.006;2022-10-16T00:12:18;3.88;;;2.00;;
66429;SDS011;53242;51.694;10.006;2022-10-16T00:14:40;5.22;;;1.95;;
66429;SDS011;53242;51.694;10.006;2022-10-16T00:19:27;6.65;;;1.77;;
66429;SDS011;53242;51.694;10.006;2022-10-16T00:21:49;3.58;;;1.83;;
66429;SDS011;53242;51.694;10.006;2022-10-16T00:24:11;4.25;;;1.73;;
66429;SDS011;53242;51.694;10.006;2022-10-16T00:26:35;3.15;;;1.88;;
66429;SDS011;53242;51.694;10.006;2022-10-16T00:29:00;3.95;;;2.42;;
66429;SDS011;53242;51.694;10.006;2022-10-16T00:31:22;3.85;;;2.20;;
66429;SDS011;53242;51.694;10.006;2022-10-16T00:33:45;5.53;;;2.00;;
66429;SDS011;53242;51.694;10.006;2022-10-16T00:36:10;3.00;;;1.77;;
66429;SDS011;53242;51.694;10.006;2022-10-16T00:38:35;2.50;;;1.80;;
66429;SDS011;53242;51.694;10.006;2022-10-16T00:40:59;4.05;;;2.50;;
66429;SDS011;53242;51.694;10.006;2022-10-16T00:46:03;3.95;;;2.10;;
66429;SDS011;53242;51.694;10.006;2022-10-16T00:48:32;4.10;;;2.30;;
66429;SDS011;53242;51.694;10.006;2022-10-16T00:50:55;4.43;;;2.33;;
66429;SDS011;53242;51.694;10.006;2022-10-16T00:53:18;3.25;;;1.77;;
66429;SDS011;53242;51.694;10.006;2022-10-16T00:55:41;4.78;;;2.35;;
66429;SDS011;53242;51.694;10.006;2022-10-16T00:58:03;3.97;;;1.95;;
66429;SDS011;53242;51.694;10.006;2022-10-16T01:00:26;4.95;;;2.30;;
66429;SDS011;53242;51.694;10.006;2022-10-16T01:02:56;3.58;;;2.30;;
66429;SDS011;53242;51.694;10.006;2022-10-16T01:05:21;5.00;;;2.13;;
66429;SDS011;53242;51.694;10.006;2022-10-16T01:07:51;4.10;;;2.22;;
66429;SDS011;53242;51.694;10.006;2022-10-16T01:13:24;5.53;;;2.00;;
66429;SDS011;53242;51.694;10.006;2022-10-16T01:15:51;3.15;;;2.00;;
66429;SDS011;53242;51.694;10.006;2022-10-16T01:18:16;3.97;;;2.17;;
66429;SDS011;53242;51.694;10.006;2022-10-16T01:21:10;4.43;;;1.88;;
66429;SDS011;53242;51.694;10.006;2022-10-16T01:29:25;4.78;;;1.90;;
66429;SDS011;53242;51.694;10.006;2022-10-16T01:31:53;3.10;;;1.77;;
66429;SDS011;53242;51.694;10.006;2022-10-16T01:36:55;3.38;;;1.90;;
66429;SDS011;53242;51.694;10.006;2022-10-16T01:39:24;3.00;;;1.80;;
66429;SDS011;53242;51.694;10.006;2022-10-16T01:41:55;4.53;;;2.20;;
66429;SDS011;53242;51.694;10.006;2022-10-16T01:44:26;3.10;;;1.80;;
66429;SDS011;53242;51.694;10.006;2022-10-16T01:46:53;5.38;;;2.20;;
66429;SDS011;53242;51.694;10.006;2022-10-16T01:49:17;4.28;;;2.63;;
66429;SDS011;53242;51.694;10.006;2022-10-16T01:51:41;5.05;;;2.22;;
66429;SDS011;53242;51.694;10.006;2022-10-16T01:54:07;4.68;;;2.25;;
66429;SDS011;53242;51.694;10.006;2022-10-16T01:56:30;3.45;;;2.08;;
66429;SDS011;53242;51.694;10.006;2022-10-16T01:58:55;4.35;;;2.20;;
66429;SDS011;53242;51.694;10.006;2022-10-16T02:01:24;4.75;;;2.75;;
66429;SDS011;53242;51.694;10.006;2022-10-16T02:03:49;4.38;;;2.58;;
66429;SDS011;53242;51.694;10.006;2022-10-16T02:06:15;4.03;;;1.95;;
66429;SDS011;53242;51.694;10.006;2022-10-16T02:08:38;3.97;;;2.38;;
66429;SDS011;53242;51.694;10.006;2022-10-16T02:13:29;4.45;;;2.15;;
66429;SDS011;53242;51.694;10.006;2022-10-16T02:15:55;2.65;;;2.10;;
66429;SDS011;53242;51.694;10.006;2022-10-16T02:18:17;4.00;;;2.17;;
66429;SDS011;53242;51.694;10.006;2022-10-16T02:20:54;4.18;;;1.80;;
66429;SDS011;53242;51.694;10.006;2022-10-16T02:23:22;5.45;;;2.20;;
66429;SDS011;53242;51.694;10.006;2022-10-16T02:25:51;3.92;;;2.10;;
66429;SDS011;53242;51.694;10.006;2022-10-16T02:28:17;3.10;;;2.00;;
66429;SDS011;53242;51.694;10.006;2022-10-16T02:31:03;2.67;;;2.03;;
66429;SDS011;53242;51.694;10.006;2022-10-16T02:33:30;3.20;;;1.92;;
66429;SDS011;53242;51.694;10.006;2022-10-16T02:35:55;6.82;;;2.00;;
66429;SDS011;53242;51.694;10.006;2022-10-16T02:38:19;3.72;;;1.90;;
66429;SDS011;53242;51.694;10.006;2022-10-16T02:40:43;3.72;;;2.13;;
66429;SDS011;53242;51.694;10.006;2022-10-16T02:43:06;2.83;;;1.95;;
66429;SDS011;53242;51.694;10.006;2022-10-16T02:45:28;3.50;;;1.75;;
66429;SDS011;53242;51.694;10.006;2022-10-16T02:47:51;3.42;;;1.60;;
66429;SDS011;53242;51.694;10.006;2022-10-16T02:50:14;3.35;;;1.92;;
66429;SDS011;53242;51.694;10.006;2022-10-16T02:52:36;3.67;;;1.90;;
66429;SDS011;53242;51.694;10.006;2022-10-16T02:54:59;4.18;;;2.10;;
66429;SDS011;53242;51.694;10.006;2022-10-16T02:57:21;2.80;;;1.90;;
66429;SDS011;53242;51.694;10.006;2022-10-16T02:59:44;3.33;;;1.80;;
66429;SDS011;53242;51.694;10.006;2022-10-16T03:02:06;2.65;;;1.80;;
66429;SDS011;53242;51.694;10.006;2022-10-16T03:04:29;5.10;;;2.20;;
66429;SDS011;53242;51.694;10.006;2022-10-16T03:06:51;3.25;;;1.83;;
66429;SDS011;53242;51.694;10.006;2022-10-16T03:09:14;3.33;;;1.92;;
66429;SDS011;53242;51.694;10.006;2022-10-16T03:11:36;4.50;;;2.03;;
66429;SDS011;53242;51.694;10.006;2022-10-16T03:13:59;6.43;;;2.00;;
66429;SDS011;53242;51.694;10.006;2022-10-16T03:16:21;3.63;;;1.75;;
66429;SDS011;53242;51.694;10.006;2022-10-16T03:18:43;3.58;;;1.88;;
66429;SDS011;53242;51.694;10.006;2022-10-16T03:21:11;3.35;;;2.15;;
66429;SDS011;53242;51.694;10.006;2022-10-16T03:23:33;2.88;;;1.80;;
66429;SDS011;53242;51.694;10.006;2022-10-16T03:25:56;5.32;;;1.90;;
66429;SDS011;53242;51.694;10.006;2022-10-16T03:28:18;2.75;;;1.50;;
66429;SDS011;53242;51.694;10.006;2022-10-16T03:30:40;3.47;;;1.70;;
66429;SDS011;53242;51.694;10.006;2022-10-16T03:33:04;2.58;;;1.63;;
66429;SDS011;53242;51.694;10.006;2022-10-16T03:35:27;3.65;;;1.40;;
66429;SDS011;53242;51.694;10.006;2022-10-16T03:37:49;2.40;;;1.60;;
66429;SDS011;53242;51.694;10.006;2022-10-16T03:40:13;2.88;;;1.70;;
66429;SDS011;53242;51.694;10.006;2022-10-16T03:42:35;3.80;;;1.80;;
66429;SDS011;53242;51.694;10.006;2022-10-16T03:44:58;4.97;;;2.30;;
66429;SDS011;53242;51.694;10.006;2022-10-16T03:47:20;7.55;;;2.15;;
66429;SDS011;53242;51.694;10.006;2022-10-16T03:49:45;3.40;;;1.90;;
66429;SDS011;53242;51.694;10.006;2022-10-16T03:52:07;3.25;;;1.83;;
66429;SDS011;53242;51.694;10.006;2022-10-16T03:54:30;3.30;;;2.10;;
66429;SDS011;53242;51.694;10.006;2022-10-16T03:56:52;5.20;;;2.30;;
66429;SDS011;53242;51.694;10.006;2022-10-16T03:59:14;4.15;;;2.40;;
66429;SDS011;53242;51.694;10.006;2022-10-16T04:01:37;3.42;;;1.75;;
66429;SDS011;53242;51.694;10.006;2022-10-16T04:03:59;4.50;;;2.00;;
66429;SDS011;53242;51.694;10.006;2022-10-16T04:06:22;4.05;;;1.60;;
66429;SDS011;53242;51.694;10.006;2022-10-16T04:08:44;3.83;;;1.98;;
66429;SDS011;53242;51.694;10.006;2022-10-16T04:11:07;7.25;;;2.28;;
66429;SDS011;53242;51.694;10.006;2022-10-16T04:13:29;7.25;;;3.30;;
66429;SDS011;53242;51.694;10.006;2022-10-16T04:15:52;6.15;;;2.70;;
66429;SDS011;53242;51.694;10.006;2022-10-16T04:18:14;5.63;;;3.25;;
66429;SDS011;53242;51.694;10.006;2022-10-16T04:20:36;5.28;;;3.05;;
66429;SDS011;53242;51.694;10.006;2022-10-16T04:22:59;3.88;;;2.38;;
66429;SDS011;53242;51.694;10.006;2022-10-16T04:25:21;5.15;;;2.70;;
66429;SDS011;53242;51.694;10.006;2022-10-16T04:27:44;4.20;;;2.33;;
66429;SDS011;53242;51.694;10.006;2022-10-16T04:30:06;3.35;;;2.05;;
66429;SDS011;53242;51.694;10.006;2022-10-16T04:32:29;4.13;;;2.33;;
66429;SDS011;53242;51.694;10.006;2022-10-16T04:34:52;4.85;;;2.20;;
66429;SDS011;53242;51.694;10.006;2022-10-16T04:37:15;4.35;;;2.30;;
66429;SDS011;53242;51.694;10.006;2022-10-16T04:39:37;3.45;;;2.30;;
66429;SDS011;53242;51.694;10.006;2022-10-16T04:41:59;5.75;;;2.17;;
66429;SDS011;53242;51.694;10.006;2022-10-16T04:44:22;3.95;;;2.38;;
66429;SDS011;53242;51.694;10.006;2022-10-16T04:46:44;3.97;;;2.42;;
66429;SDS011;53242;51.694;10.006;2022-10-16T04:49:07;3.88;;;2.20;;
66429;SDS011;53242;51.694;10.006;2022-10-16T04:51:29;3.75;;;2.28;;
66429;SDS011;53242;51.694;10.006;2022-10-16T04:53:51;3.97;;;2.05;;
66429;SDS011;53242;51.694;10.006;2022-10-16T04:56:14;3.53;;;2.35;;
66429;SDS011;53242;51.694;10.006;2022-10-16T04:58:37;3.38;;;2.00;;
66429;SDS011;53242;51.694;10.006;2022-10-16T05:00:59;5.10;;;2.20;;
66429;SDS011;53242;51.694;10.006;2022-10-16T05:03:22;3.67;;;2.15;;
66429;SDS011;53242;51.694;10.006;2022-10-16T05:05:44;4.28;;;2.28;;
66429;SDS011;53242;51.694;10.006;2022-10-16T05:08:08;4.45;;;2.20;;
66429;SDS011;53242;51.694;10.006;2022-10-16T05:10:30;4.55;;;1.90;;
66429;SDS011;53242;51.694;10.006;2022-10-16T05:12:52;3.95;;;2.10;;
66429;SDS011;53242;51.694;10.006;2022-10-16T05:15:15;3.65;;;2.20;;
66429;SDS011;53242;51.694;10.006;2022-10-16T05:17:37;6.13;;;2.30;;
66429;SDS011;53242;51.694;10.006;2022-10-16T05:20:00;5.95;;;2.35;;
66429;SDS011;53242;51.694;10.006;2022-10-16T05:22:22;4.75;;;1.98;;
66429;SDS011;53242;51.694;10.006;2022-10-16T05:24:45;3.60;;;1.90;;
66429;SDS011;53242;51.694;10.006;2022-10-16T05:27:07;4.28;;;2.20;;
66429;SDS011;53242;51.694;10.006;2022-10-16T05:29:29;5.20;;;2.00;;
66429;SDS011;53242;51.694;10.006;2022-10-16T05:31:52;4.85;;;2.42;;
66429;SDS011;53242;51.694;10.006;2022-10-16T05:34:15;6.55;;;2.78;;
66429;SDS011;53242;51.694;10.006;2022-10-16T05:36:38;4.95;;;2.35;;
66429;SDS011;53242;51.694;10.006;2022-10-16T05:39:00;7.05;;;2.50;;
66429;SDS011;53242;51.694;10.006;2022-10-16T05:41:23;6.50;;;2.88;;
66429;SDS011;53242;51.694;10.006;2022-10-16T05:43:48;10.20;;;3.03;;
66429;SDS011;53242;51.694;10.006;2022-10-16T05:46:10;6.80;;;3.30;;
66429;SDS011;53242;51.694;10.006;2022-10-16T05:48:33;8.50;;;3.75;;
66429;SDS011;53242;51.694;10.006;2022-10-16T05:50:56;10.82;;;4.57;;
66429;SDS011;53242;51.694;10.006;2022-10-16T05:53:22;7.00;;;2.95;;
66429;SDS011;53242;51.694;10.006;2022-10-16T05:55:51;4.97;;;2.20;;
66429;SDS011;53242;51.694;10.006;2022-10-16T05:58:14;3.58;;;2.33;;
66429;SDS011;53242;51.694;10.006;2022-10-16T06:00:36;3.97;;;2.00;;
66429;SDS011;53242;51.694;10.006;2022-10-16T06:02:58;4.40;;;2.00;;
66429;SDS011;53242;51.694;10.006;2022-10-16T06:05:21;3.08;;;1.85;;
66429;SDS011;53242;51.694;10.006;2022-10-16T06:07:43;6.85;;;2.60;;
66429;SDS011;53242;51.694;10.006;2022-10-16T06:10:06;9.98;;;3.85;;
66429;SDS011;53242;51.694;10.006;2022-10-16T06:12:29;11.55;;;3.97;;
66429;SDS011;53242;51.694;10.006;2022-10-16T06:14:51;6.18;;;2.65;;
66429;SDS011;53242;51.694;10.006;2022-10-16T06:17:14;4.50;;;2.67;;
66429;SDS011;53242;51.694;10.006;2022-10-16T06:19:37;4.20;;;2.15;;
66429;SDS011;53242;51.694;10.006;2022-10-16T06:21:59;5.15;;;2.22;;
66429;SDS011;53242;51.694;10.006;2022-10-16T06:24:22;3.45;;;1.90;;
66429;SDS011;53242;51.694;10.006;2022-10-16T06:26:44;3.15;;;1.88;;
66429;SDS011;53242;51.694;10.006;2022-10-16T06:29:07;4.35;;;2.50;;
66429;SDS011;53242;51.694;10.006;2022-10-16T06:31:30;7.32;;;2.45;;
66429;SDS011;53242;51.694;10.006;2022-10-16T06:33:55;2.85;;;1.80;;
66429;SDS011;53242;51.694;10.006;2022-10-16T06:36:18;5.63;;;2.10;;
66429;SDS011;53242;51.694;10.006;2022-10-16T06:38:41;2.50;;;1.90;;
66429;SDS011;53242;51.694;10.006;2022-10-16T06:41:04;4.05;;;1.90;;
66429;SDS011;53242;51.694;10.006;2022-10-16T06:43:28;3.22;;;1.67;;
66429;SDS011;53242;51.694;10.006;2022-10-16T06:45:54;4.20;;;1.90;;
66429;SDS011;53242;51.694;10.006;2022-10-16T06:48:18;3.47;;;2.15;;
66429;SDS011;53242;51.694;10.006;2022-10-16T06:50:40;5.05;;;2.20;;
66429;SDS011;53242;51.694;10.006;2022-10-16T06:53:03;4.72;;;2.10;;
66429;SDS011;53242;51.694;10.006;2022-10-16T06:55:25;6.00;;;2.83;;
66429;SDS011;53242;51.694;10.006;2022-10-16T06:57:48;4.78;;;2.50;;
66429;SDS011;53242;51.694;10.006;2022-10-16T07:00:10;4.82;;;2.30;;
66429;SDS011;53242;51.694;10.006;2022-10-16T07:02:33;4.78;;;2.40;;
66429;SDS011;53242;51.694;10.006;2022-10-16T07:04:56;3.97;;;1.98;;
66429;SDS011;53242;51.694;10.006;2022-10-16T07:07:18;3.88;;;2.22;;
66429;SDS011;53242;51.694;10.006;2022-10-16T07:09:41;3.80;;;2.17;;
66429;SDS011;53242;51.694;10.006;2022-10-16T07:12:03;3.78;;;2.00;;
66429;SDS011;53242;51.694;10.006;2022-10-16T07:14:26;3.22;;;1.73;;
66429;SDS011;53242;51.694;10.006;2022-10-16T07:16:48;4.13;;;1.90;;
66429;SDS011;53242;51.694;10.006;2022-10-16T07:19:11;3.00;;;1.83;;
66429;SDS011;53242;51.694;10.006;2022-10-16T07:21:36;2.85;;;2.00;;
66429;SDS011;53242;51.694;10.006;2022-10-16T07:23:59;5.72;;;2.17;;
66429;SDS011;53242;51.694;10.006;2022-10-16T07:26:23;3.85;;;1.92;;
66429;SDS011;53242;51.694;10.006;2022-10-16T07:28:46;3.50;;;1.75;;
66429;SDS011;53242;51.694;10.006;2022-10-16T07:31:10;4.13;;;1.90;;
66429;SDS011;53242;51.694;10.006;2022-10-16T07:33:35;4.28;;;1.80;;
66429;SDS011;53242;51.694;10.006;2022-10-16T07:35:57;3.22;;;2.00;;
66429;SDS011;53242;51.694;10.006;2022-10-16T07:38:20;2.53;;;1.80;;
66429;SDS011;53242;51.694;10.006;2022-10-16T07:40:43;4.30;;;2.13;;
66429;SDS011;53242;51.694;10.006;2022-10-16T07:43:06;3.85;;;1.40;;
66429;SDS011;53242;51.694;10.006;2022-10-16T07:45:29;2.92;;;1.63;;
66429;SDS011;53242;51.694;10.006;2022-10-16T07:47:51;2.88;;;1.80;;
66429;SDS011;53242;51.694;10.006;2022-10-16T07:50:14;3.15;;;1.58;;
66429;SDS011;53242;51.694;10.006;2022-10-16T07:52:36;3.50;;;1.67;;
66429;SDS011;53242;51.694;10.006;2022-10-16T07:54:58;3.42;;;1.58;;
66429;SDS011;53242;51.694;10.006;2022-10-16T07:57:21;3.60;;;1.40;;
66429;SDS011;53242;51.694;10.006;2022-10-16T07:59:43;4.18;;;1.70;;
66429;SDS011;53242;51.694;10.006;2022-10-16T08:02:06;2.78;;;1.70;;
66429;SDS011;53242;51.694;10.006;2022-10-16T08:04:29;4.43;;;1.50;;
66429;SDS011;53242;51.694;10.006;2022-10-16T08:06:51;6.88;;;2.30;;
66429;SDS011;53242;51.694;10.006;2022-10-16T08:09:14;4.60;;;1.63;;
66429;SDS011;53242;51.694;10.006;2022-10-16T08:11:36;3.13;;;1.40;;
66429;SDS011;53242;51.694;10.006;2022-10-16T08:13:59;2.40;;;1.50;;
66429;SDS011;53242;51.694;10.006;2022-10-16T08:16:21;3.42;;;1.77;;
66429;SDS011;53242;51.694;10.006;2022-10-16T08:18:44;4.05;;;1.83;;
66429;SDS011;53242;51.694;10.006;2022-10-16T08:21:07;7.65;;;2.38;;
66429;SDS011;53242;51.694;10.006;2022-10-16T08:23:35;3.70;;;1.67;;
66429;SDS011;53242;51.694;10.006;2022-10-16T08:26:01;2.85;;;1.67;;
66429;SDS011;53242;51.694;10.006;2022-10-16T08:28:25;4.28;;;1.65;;
66429;SDS011;53242;51.694;10.006;2022-10-16T08:30:48;2.60;;;1.50;;
66429;SDS011;53242;51.694;10.006;2022-10-16T08:33:10;4.25;;;1.80;;
66429;SDS011;53242;51.694;10.006;2022-10-16T08:35:33;7.60;;;2.00;;
66429;SDS011;53242;51.694;10.006;2022-10-16T08:37:56;2.78;;;2.05;;
66429;SDS011;53242;51.694;10.006;2022-10-16T08:40:25;1.83;;;1.30;;
66429;SDS011;53242;51.694;10.006;2022-10-16T08:42:53;2.17;;;1.52;;
66429;SDS011;53242;51.694;10.006;2022-10-16T08:48:35;2.42;;;1.70;;
66429;SDS011;53242;51.694;10.006;2022-10-16T08:51:02;3.95;;;2.10;;
66429;SDS011;53242;51.694;10.006;2022-10-16T08:56:11;2.95;;;1.17;;
66429;SDS011;53242;51.694;10.006;2022-10-16T08:58:33;3.13;;;1.20;;
66429;SDS011;53242;51.694;10.006;2022-10-16T09:00:56;2.28;;;1.20;;
66429;SDS011;53242;51.694;10.006;2022-10-16T09:08:28;2.00;;;1.00;;
66429;SDS011;53242;51.694;10.006;2022-10-16T09:14:07;1.50;;;1.35;;
66429;SDS011;53242;51.694;10.006;2022-10-16T09:16:57;4.30;;;1.40;;
66429;SDS011;53242;51.694;10.006;2022-10-16T09:19:31;4.60;;;1.10;;
66429;SDS011;53242;51.694;10.006;2022-10-16T09:22:16;1.83;;;1.20;;
66429;SDS011;53242;51.694;10.006;2022-10-16T09:24:39;2.10;;;1.20;;
66429;SDS011;53242;51.694;10.006;2022-10-16T09:27:02;1.65;;;1.08;;
66429;SDS011;53242;51.694;10.006;2022-10-16T09:29:25;1.63;;;1.20;;
66429;SDS011;53242;51.694;10.006;2022-10-16T09:31:47;1.65;;;0.90;;
66429;SDS011;53242;51.694;10.006;2022-10-16T09:34:16;2.08;;;1.25;;
66429;SDS011;53242;51.694;10.006;2022-10-16T09:36:53;1.00;;;0.88;;
66429;SDS011;53242;51.694;10.006;2022-10-16T09:39:19;1.20;;;1.00;;
66429;SDS011;53242;51.694;10.006;2022-10-16T09:41:42;1.63;;;1.00;;
66429;SDS011;53242;51.694;10.006;2022-10-16T09:44:15;1.30;;;1.08;;
66429;SDS011;53242;51.694;10.006;2022-10-16T09:46:43;1.33;;;0.82;;
66429;SDS011;53242;51.694;10.006;2022-10-16T09:49:16;1.05;;;0.90;;
66429;SDS011;53242;51.694;10.006;2022-10-16T09:51:43;3.78;;;1.30;;
66429;SDS011;53242;51.694;10.006;2022-10-16T09:56:32;1.13;;;0.80;;
66429;SDS011;53242;51.694;10.006;2022-10-16T09:58:58;0.80;;;0.80;;
66429;SDS011;53242;51.694;10.006;2022-10-16T10:01:24;3.88;;;1.00;;
66429;SDS011;53242;51.694;10.006;2022-10-16T10:03:55;1.20;;;0.90;;
66429;SDS011;53242;51.694;10.006;2022-10-16T10:06:31;2.65;;;1.08;;
66429;SDS011;53242;51.694;10.006;2022-10-16T10:08:57;1.70;;;0.82;;
66429;SDS011;53242;51.694;10.006;2022-10-16T10:14:19;1.00;;;0.90;;
66429;SDS011;53242;51.694;10.006;2022-10-16T10:16:49;1.13;;;0.80;;
66429;SDS011;53242;51.694;10.006;2022-10-16T10:19:16;0.95;;;0.80;;
66429;SDS011;53242;51.694;10.006;2022-10-16T10:21:45;4.40;;;1.08;;
66429;SDS011;53242;51.694;10.006;2022-10-16T10:24:16;1.25;;;0.73;;
66429;SDS011;53242;51.694;10.006;2022-10-16T10:34:21;1.92;;;0.85;;
66429;SDS011;53242;51.694;10.006;2022-10-16T10:40:30;1.80;;;1.00;;
66429;SDS011;53242;51.694;10.006;2022-10-16T10:45:28;0.80;;;0.80;;
66429;SDS011;53242;51.694;10.006;2022-10-16T10:48:20;1.02;;;0.80;;
66429;SDS011;53242;51.694;10.006;2022-10-16T10:50:55;0.95;;;0.80;;
66429;SDS011;53242;51.694;10.006;2022-10-16T10:53:25;2.15;;;0.85;;
66429;SDS011;53242;51.694;10.006;2022-10-16T10:56:20;3.63;;;0.85;;
66429;SDS011;53242;51.694;10.006;2022-10-16T10:59:07;1.40;;;1.05;;
66429;SDS011;53242;51.694;10.006;2022-10-16T11:02:23;2.35;;;0.80;;
66429;SDS011;53242;51.694;10.006;2022-10-16T11:04:50;2.28;;;0.93;;
66429;SDS011;53242;51.694;10.006;2022-10-16T11:07:19;2.15;;;0.90;;
66429;SDS011;53242;51.694;10.006;2022-10-16T11:09:47;2.33;;;1.15;;
66429;SDS011;53242;51.694;10.006;2022-10-16T11:12:20;1.52;;;0.80;;
66429;SDS011;53242;51.694;10.006;2022-10-16T11:17:42;2.35;;;0.90;;
66429;SDS011;53242;51.694;10.006;2022-10-16T11:20:29;1.67;;;0.90;;
66429;SDS011;53242;51.694;10.006;2022-10-16T11:22:56;1.20;;;0.70;;
66429;SDS011;53242;51.694;10.006;2022-10-16T11:25:39;2.33;;;1.10;;
66429;SDS011;53242;51.694;10.006;2022-10-16T11:28:08;2.33;;;0.90;;
66429;SDS011;53242;51.694;10.006;2022-10-16T11:30:45;3.90;;;1.30;;
66429;SDS011;53242;51.694;10.006;2022-10-16T11:35:55;3.03;;;1.00;;
66429;SDS011;53242;51.694;10.006;2022-10-16T11:38:26;2.53;;;0.90;;
66429;SDS011;53242;51.694;10.006;2022-10-16T11:40:56;3.03;;;1.23;;
66429;SDS011;53242;51.694;10.006;2022-10-16T11:43:32;4.60;;;1.10;;
66429;SDS011;53242;51.694;10.006;2022-10-16T11:46:02;3.47;;;1.20;;
66429;SDS011;53242;51.694;10.006;2022-10-16T11:48:35;2.17;;;0.60;;
66429;SDS011;53242;51.694;10.006;2022-10-16T11:56:12;2.45;;;0.68;;
66429;SDS011;53242;51.694;10.006;2022-10-16T12:03:35;0.88;;;0.80;;
66429;SDS011;53242;51.694;10.006;2022-10-16T12:06:40;1.83;;;0.70;;
66429;SDS011;53242;51.694;10.006;2022-10-16T12:11:49;1.45;;;0.60;;
66429;SDS011;53242;51.694;10.006;2022-10-16T12:16:36;0.63;;;0.63;;
66429;SDS011;53242;51.694;10.006;2022-10-16T12:19:18;1.55;;;0.75;;
66429;SDS011;53242;51.694;10.006;2022-10-16T12:21:42;1.85;;;0.65;;
66429;SDS011;53242;51.694;10.006;2022-10-16T12:24:06;1.30;;;0.80;;
66429;SDS011;53242;51.694;10.006;2022-10-16T12:26:30;0.50;;;0.50;;
66429;SDS011;53242;51.694;10.006;2022-10-16T12:28:55;0.70;;;0.70;;
66429;SDS011;53242;51.694;10.006;2022-10-16T12:31:37;1.25;;;0.80;;
66429;SDS011;53242;51.694;10.006;2022-10-16T12:34:05;0.80;;;0.65;;
66429;SDS011;53242;51.694;10.006;2022-10-16T12:36:29;0.88;;;0.70;;
66429;SDS011;53242;51.694;10.006;2022-10-16T12:38:54;1.38;;;0.75;;
66429;SDS011;53242;51.694;10.006;2022-10-16T12:41:33;0.60;;;0.60;;
66429;SDS011;53242;51.694;10.006;2022-10-16T12:43:58;2.05;;;0.98;;
66429;SDS011;53242;51.694;10.006;2022-10-16T12:48:51;1.38;;;0.70;;
66429;SDS011;53242;51.694;10.006;2022-10-16T12:59:59;1.15;;;0.70;;
66429;SDS011;53242;51.694;10.006;2022-10-16T13:11:21;0.60;;;0.60;;
66429;SDS011;53242;51.694;10.006;2022-10-16T13:22:21;0.90;;;0.70;;
66429;SDS011;53242;51.694;10.006;2022-10-16T13:30:20;6.28;;;0.90;;
66429;SDS011;53242;51.694;10.006;2022-10-16T13:32:47;0.70;;;0.60;;
66429;SDS011;53242;51.694;10.006;2022-10-16T13:35:26;2.42;;;0.75;;
66429;SDS011;53242;51.694;10.006;2022-10-16T13:37:50;2.53;;;0.70;;
66429;SDS011;53242;51.694;10.006;2022-10-16T13:40:23;4.50;;;0.82;;
66429;SDS011;53242;51.694;10.006;2022-10-16T13:42:46;4.20;;;1.75;;
66429;SDS011;53242;51.694;10.006;2022-10-16T13:45:17;1.73;;;0.90;;
66429;SDS011;53242;51.694;10.006;2022-10-16T13:47:40;1.77;;;0.65;;
66429;SDS011;53242;51.694;10.006;2022-10-16T13:52:33;1.73;;;0.70;;
66429;SDS011;53242;51.694;10.006;2022-10-16T13:54:55;1.15;;;0.70;;
66429;SDS011;53242;51.694;10.006;2022-10-16T13:57:18;1.42;;;0.70;;
66429;SDS011;53242;51.694;10.006;2022-10-16T13:59:44;1.38;;;0.50;;
66429;SDS011;53242;51.694;10.006;2022-10-16T14:02:15;0.93;;;0.73;;
66429;SDS011;53242;51.694;10.006;2022-10-16T14:04:42;1.83;;;0.70;;
66429;SDS011;53242;51.694;10.006;2022-10-16T14:07:04;2.80;;;1.40;;
66429;SDS011;53242;51.694;10.006;2022-10-16T14:09:30;1.33;;;0.60;;
66429;SDS011;53242;51.694;10.006;2022-10-16T14:11:58;1.38;;;0.50;;
66429;SDS011;53242;51.694;10.006;2022-10-16T14:14:23;1.08;;;0.60;;
66429;SDS011;53242;51.694;10.006;2022-10-16T14:16:46;2.22;;;0.70;;
66429;SDS011;53242;51.694;10.006;2022-10-16T14:19:14;1.67;;;0.68;;
66429;SDS011;53242;51.694;10.006;2022-10-16T14:21:48;1.48;;;0.73;;
66429;SDS011;53242;51.694;10.006;2022-10-16T14:24:12;0.85;;;0.50;;
66429;SDS011;53242;51.694;10.006;2022-10-16T14:26:40;0.80;;;0.80;;
66429;SDS011;53242;51.694;10.006;2022-10-16T14:29:10;0.90;;;0.60;;
66429;SDS011;53242;51.694;10.006;2022-10-16T14:31:34;0.88;;;0.70;;
66429;SDS011;53242;51.694;10.006;2022-10-16T14:33:59;0.77;;;0.60;;
66429;SDS011;53242;51.694;10.006;2022-10-16T14:36:22;1.58;;;0.60;;
66429;SDS011;53242;51.694;10.006;2022-10-16T14:39:19;2.30;;;0.93;;
66429;SDS011;53242;51.694;10.006;2022-10-16T14:41:43;1.33;;;0.55;;
66429;SDS011;53242;51.694;10.006;2022-10-16T14:44:09;0.55;;;0.55;;
66429;SDS011;53242;51.694;10.006;2022-10-16T14:46:37;0.70;;;0.60;;
66429;SDS011;53242;51.694;10.006;2022-10-16T14:51:30;0.55;;;0.50;;
66429;SDS011;53242;51.694;10.006;2022-10-16T14:53:53;1.35;;;0.40;;
66429;SDS011;53242;51.694;10.006;2022-10-16T14:56:17;1.08;;;0.70;;
66429;SDS011;53242;51.694;10.006;2022-10-16T14:58:43;1.23;;;0.70;;
66429;SDS011;53242;51.694;10.006;2022-10-16T15:01:07;1.60;;;1.00;;
66429;SDS011;53242;51.694;10.006;2022-10-16T15:03:30;2.03;;;0.98;;
66429;SDS011;53242;51.694;10.006;2022-10-16T15:05:53;0.70;;;0.70;;
66429;SDS011;53242;51.694;10.006;2022-10-16T15:08:15;1.75;;;0.70;;
66429;SDS011;53242;51.694;10.006;2022-10-16T15:10:39;1.38;;;0.77;;
66429;SDS011;53242;51.694;10.006;2022-10-16T15:13:04;1.40;;;0.63;;
66429;SDS011;53242;51.694;10.006;2022-10-16T15:15:32;0.60;;;0.60;;
66429;SDS011;53242;51.694;10.006;2022-10-16T15:17:57;2.70;;;1.00;;
66429;SDS011;53242;51.694;10.006;2022-10-16T15:20:23;0.75;;;0.60;;
66429;SDS011;53242;51.694;10.006;2022-10-16T15:22:47;0.60;;;0.55;;
66429;SDS011;53242;51.694;10.006;2022-10-16T15:25:17;2.55;;;0.60;;
66429;SDS011;53242;51.694;10.006;2022-10-16T15:27:56;0.68;;;0.50;;
66429;SDS011;53242;51.694;10.006;2022-10-16T15:30:19;0.80;;;0.70;;
66429;SDS011;53242;51.694;10.006;2022-10-16T15:32:41;1.05;;;0.60;;
66429;SDS011;53242;51.694;10.006;2022-10-16T15:35:03;0.93;;;0.60;;
66429;SDS011;53242;51.694;10.006;2022-10-16T15:37:26;0.95;;;0.60;;
66429;SDS011;53242;51.694;10.006;2022-10-16T15:39:49;1.52;;;0.68;;
66429;SDS011;53242;51.694;10.006;2022-10-16T15:42:12;3.35;;;0.60;;
66429;SDS011;53242;51.694;10.006;2022-10-16T15:44:35;1.75;;;0.68;;
66429;SDS011;53242;51.694;10.006;2022-10-16T15:46:58;3.22;;;0.70;;
66429;SDS011;53242;51.694;10.006;2022-10-16T15:49:20;0.73;;;0.70;;
66429;SDS011;53242;51.694;10.006;2022-10-16T15:51:42;5.35;;;2.35;;
66429;SDS011;53242;51.694;10.006;2022-10-16T15:54:05;2.65;;;1.42;;
66429;SDS011;53242;51.694;10.006;2022-10-16T15:56:27;2.10;;;0.73;;
66429;SDS011;53242;51.694;10.006;2022-10-16T15:58:51;1.02;;;0.60;;
66429;SDS011;53242;51.694;10.006;2022-10-16T16:01:13;2.63;;;0.80;;
66429;SDS011;53242;51.694;10.006;2022-10-16T16:03:36;1.05;;;0.70;;
66429;SDS011;53242;51.694;10.006;2022-10-16T16:06:08;1.08;;;0.75;;
66429;SDS011;53242;51.694;10.006;2022-10-16T16:08:33;0.60;;;0.60;;
66429;SDS011;53242;51.694;10.006;2022-10-16T16:10:57;2.05;;;1.00;;
66429;SDS011;53242;51.694;10.006;2022-10-16T16:13:22;0.85;;;0.50;;
66429;SDS011;53242;51.694;10.006;2022-10-16T16:15:45;3.15;;;0.85;;